sensor_id;sensor_type;location;lat;lon;timestamp;P1;durP1;ratioP1;P2;durP2;ratioP2
71963;SDS011;59834;52.124;5.422;2023-05-10T00:00:32;15.57;;;9.30;;
71963;SDS011;59834;52.124;5.422;2023-05-10T00:03:03;15.18;;;9.15;;
71963;SDS011;59834;52.124;5.422;2023-05-10T00:05:31;15.63;;;10.37;;
71963;SDS011;59834;52.124;5.422;2023-05-10T00:07:58;18.15;;;9.32;;
71963;SDS011;59834;52.124;5.422;2023-05-10T00:10:35;17.58;;;9.30;;
71963;SDS011;59834;52.124;5.422;2023-05-10T00:13:08;18.38;;;9.63;;
71963;SDS011;59834;52.124;5.422;2023-05-10T00:15:39;15.05;;;9.40;;
71963;SDS011;59834;52.124;5.422;2023-05-10T00:18:10;17.85;;;9.93;;
71963;SDS011;59834;52.124;5.422;2023-05-10T00:20:46;16.55;;;9.90;;
71963;SDS011;59834;52.124;5.422;2023-05-10T00:23:21;17.10;;;10.05;;
71963;SDS011;59834;52.124;5.422;2023-05-10T00:25:50;18.70;;;9.55;;
71963;SDS011;59834;52.124;5.422;2023-05-10T00:28:18;23.10;;;11.50;;
71963;SDS011;59834;52.124;5.422;2023-05-10T00:30:49;18.97;;;10.80;;
71963;SDS011;59834;52.124;5.422;2023-05-10T00:33:16;20.27;;;10.88;;
71963;SDS011;59834;52.124;5.422;2023-05-10T00:35:45;19.90;;;11.77;;
71963;SDS011;59834;52.124;5.422;2023-05-10T00:38:12;20.40;;;11.65;;
71963;SDS011;59834;52.124;5.422;2023-05-10T00:40:39;24.83;;;13.68;;
71963;SDS011;59834;52.124;5.422;2023-05-10T00:43:05;28.50;;;14.83;;
71963;SDS011;59834;52.124;5.422;2023-05-10T00:45:32;32.13;;;15.50;;
71963;SDS011;59834;52.124;5.422;2023-05-10T00:48:02;36.55;;;16.63;;
71963;SDS011;59834;52.124;5.422;2023-05-10T00:50:31;39.17;;;17.05;;
71963;SDS011;59834;52.124;5.422;2023-05-10T00:52:59;34.78;;;17.85;;
71963;SDS011;59834;52.124;5.422;2023-05-10T00:55:27;34.58;;;16.98;;
71963;SDS011;59834;52.124;5.422;2023-05-10T00:57:55;34.35;;;18.92;;
71963;SDS011;59834;52.124;5.422;2023-05-10T01:00:21;35.78;;;17.52;;
71963;SDS011;59834;52.124;5.422;2023-05-10T01:02:48;43.60;;;19.65;;
71963;SDS011;59834;52.124;5.422;2023-05-10T01:05:16;36.35;;;17.95;;
71963;SDS011;59834;52.124;5.422;2023-05-10T01:07:44;34.27;;;17.87;;
71963;SDS011;59834;52.124;5.422;2023-05-10T01:10:11;37.38;;;19.15;;
71963;SDS011;59834;52.124;5.422;2023-05-10T01:12:48;39.83;;;18.52;;
71963;SDS011;59834;52.124;5.422;2023-05-10T01:15:19;39.53;;;18.63;;
71963;SDS011;59834;52.124;5.422;2023-05-10T01:17:49;38.67;;;17.35;;
71963;SDS011;59834;52.124;5.422;2023-05-10T01:20:45;39.63;;;17.57;;
71963;SDS011;59834;52.124;5.422;2023-05-10T01:23:44;39.92;;;19.33;;
71963;SDS011;59834;52.124;5.422;2023-05-10T01:32:55;38.78;;;17.85;;
71963;SDS011;59834;52.124;5.422;2023-05-10T01:36:24;41.03;;;17.33;;
71963;SDS011;59834;52.124;5.422;2023-05-10T01:41:39;42.10;;;17.38;;
71963;SDS011;59834;52.124;5.422;2023-05-10T01:46:53;42.00;;;18.48;;
71963;SDS011;59834;52.124;5.422;2023-05-10T01:49:54;36.97;;;17.87;;
71963;SDS011;59834;52.124;5.422;2023-05-10T01:52:32;42.83;;;18.27;;
71963;SDS011;59834;52.124;5.422;2023-05-10T01:55:11;41.60;;;17.67;;
71963;SDS011;59834;52.124;5.422;2023-05-10T01:57:42;39.40;;;17.30;;
71963;SDS011;59834;52.124;5.422;2023-05-10T02:00:10;41.25;;;18.67;;
71963;SDS011;59834;52.124;5.422;2023-05-10T02:02:44;39.33;;;17.60;;
71963;SDS011;59834;52.124;5.422;2023-05-10T02:05:13;37.75;;;18.08;;
71963;SDS011;59834;52.124;5.422;2023-05-10T02:07:44;41.50;;;19.02;;
71963;SDS011;59834;52.124;5.422;2023-05-10T02:10:11;41.75;;;18.58;;
71963;SDS011;59834;52.124;5.422;2023-05-10T02:12:41;52.13;;;19.15;;
71963;SDS011;59834;52.124;5.422;2023-05-10T02:15:11;49.78;;;19.23;;
71963;SDS011;59834;52.124;5.422;2023-05-10T02:17:41;40.33;;;19.20;;
71963;SDS011;59834;52.124;5.422;2023-05-10T02:20:09;47.83;;;19.83;;
71963;SDS011;59834;52.124;5.422;2023-05-10T02:22:39;41.20;;;17.85;;
71963;SDS011;59834;52.124;5.422;2023-05-10T02:25:06;43.28;;;19.13;;
71963;SDS011;59834;52.124;5.422;2023-05-10T02:27:35;37.27;;;18.10;;
71963;SDS011;59834;52.124;5.422;2023-05-10T02:30:11;46.03;;;19.77;;
71963;SDS011;59834;52.124;5.422;2023-05-10T02:32:49;43.08;;;18.60;;
71963;SDS011;59834;52.124;5.422;2023-05-10T02:35:21;46.97;;;19.58;;
71963;SDS011;59834;52.124;5.422;2023-05-10T02:37:54;43.42;;;18.45;;
71963;SDS011;59834;52.124;5.422;2023-05-10T02:40:26;45.77;;;18.80;;
71963;SDS011;59834;52.124;5.422;2023-05-10T02:42:54;45.42;;;18.63;;
71963;SDS011;59834;52.124;5.422;2023-05-10T02:45:24;42.05;;;18.10;;
71963;SDS011;59834;52.124;5.422;2023-05-10T02:47:55;43.60;;;18.67;;
71963;SDS011;59834;52.124;5.422;2023-05-10T02:50:22;43.13;;;18.70;;
71963;SDS011;59834;52.124;5.422;2023-05-10T02:52:55;41.70;;;18.63;;
71963;SDS011;59834;52.124;5.422;2023-05-10T02:55:31;44.60;;;20.13;;
71963;SDS011;59834;52.124;5.422;2023-05-10T02:58:02;47.42;;;19.52;;
71963;SDS011;59834;52.124;5.422;2023-05-10T03:00:29;47.45;;;20.00;;
71963;SDS011;59834;52.124;5.422;2023-05-10T03:02:56;49.22;;;19.83;;
71963;SDS011;59834;52.124;5.422;2023-05-10T03:05:27;44.63;;;18.83;;
71963;SDS011;59834;52.124;5.422;2023-05-10T03:07:55;48.45;;;20.08;;
71963;SDS011;59834;52.124;5.422;2023-05-10T03:10:24;54.33;;;20.85;;
71963;SDS011;59834;52.124;5.422;2023-05-10T03:13:05;53.38;;;20.05;;
71963;SDS011;59834;52.124;5.422;2023-05-10T03:15:45;61.42;;;22.42;;
71963;SDS011;59834;52.124;5.422;2023-05-10T03:18:18;63.47;;;22.10;;
71963;SDS011;59834;52.124;5.422;2023-05-10T03:20:57;55.88;;;22.08;;
71963;SDS011;59834;52.124;5.422;2023-05-10T03:23:47;60.70;;;22.42;;
71963;SDS011;59834;52.124;5.422;2023-05-10T03:26:20;54.17;;;19.95;;
71963;SDS011;59834;52.124;5.422;2023-05-10T03:28:53;63.72;;;21.23;;
71963;SDS011;59834;52.124;5.422;2023-05-10T03:31:23;60.22;;;20.92;;
71963;SDS011;59834;52.124;5.422;2023-05-10T03:33:50;59.88;;;22.00;;
71963;SDS011;59834;52.124;5.422;2023-05-10T03:36:18;57.50;;;20.55;;
71963;SDS011;59834;52.124;5.422;2023-05-10T03:38:45;57.17;;;22.13;;
71963;SDS011;59834;52.124;5.422;2023-05-10T03:41:11;62.40;;;22.13;;
71963;SDS011;59834;52.124;5.422;2023-05-10T03:43:41;59.73;;;21.77;;
71963;SDS011;59834;52.124;5.422;2023-05-10T03:46:08;59.35;;;22.27;;
71963;SDS011;59834;52.124;5.422;2023-05-10T03:48:34;54.95;;;20.95;;
71963;SDS011;59834;52.124;5.422;2023-05-10T03:51:01;64.13;;;22.92;;
71963;SDS011;59834;52.124;5.422;2023-05-10T03:53:27;57.08;;;21.58;;
71963;SDS011;59834;52.124;5.422;2023-05-10T03:55:55;57.80;;;21.33;;
71963;SDS011;59834;52.124;5.422;2023-05-10T03:58:23;56.13;;;21.13;;
71963;SDS011;59834;52.124;5.422;2023-05-10T04:08:46;57.10;;;19.77;;
71963;SDS011;59834;52.124;5.422;2023-05-10T04:11:20;58.10;;;20.95;;
71963;SDS011;59834;52.124;5.422;2023-05-10T04:13:48;61.03;;;22.05;;
71963;SDS011;59834;52.124;5.422;2023-05-10T04:16:14;56.78;;;20.33;;
71963;SDS011;59834;52.124;5.422;2023-05-10T04:18:41;54.00;;;19.85;;
71963;SDS011;59834;52.124;5.422;2023-05-10T04:21:11;55.17;;;20.20;;
71963;SDS011;59834;52.124;5.422;2023-05-10T04:23:39;54.72;;;20.58;;
71963;SDS011;59834;52.124;5.422;2023-05-10T04:26:06;60.92;;;21.05;;
71963;SDS011;59834;52.124;5.422;2023-05-10T04:28:33;60.63;;;19.65;;
71963;SDS011;59834;52.124;5.422;2023-05-10T04:31:03;49.53;;;19.73;;
71963;SDS011;59834;52.124;5.422;2023-05-10T04:33:34;53.72;;;20.75;;
71963;SDS011;59834;52.124;5.422;2023-05-10T04:36:02;47.10;;;18.50;;
71963;SDS011;59834;52.124;5.422;2023-05-10T04:38:29;49.38;;;18.20;;
71963;SDS011;59834;52.124;5.422;2023-05-10T04:41:03;50.85;;;19.30;;
71963;SDS011;59834;52.124;5.422;2023-05-10T04:43:32;47.45;;;18.98;;
71963;SDS011;59834;52.124;5.422;2023-05-10T04:46:16;46.97;;;18.13;;
71963;SDS011;59834;52.124;5.422;2023-05-10T04:48:54;47.38;;;18.80;;
71963;SDS011;59834;52.124;5.422;2023-05-10T04:51:24;50.03;;;19.95;;
71963;SDS011;59834;52.124;5.422;2023-05-10T04:54:04;49.15;;;20.08;;
71963;SDS011;59834;52.124;5.422;2023-05-10T04:56:42;45.83;;;18.15;;
71963;SDS011;59834;52.124;5.422;2023-05-10T04:59:17;51.60;;;20.75;;
71963;SDS011;59834;52.124;5.422;2023-05-10T05:01:51;52.67;;;18.90;;
71963;SDS011;59834;52.124;5.422;2023-05-10T05:04:26;59.10;;;21.48;;
71963;SDS011;59834;52.124;5.422;2023-05-10T05:06:57;52.17;;;19.52;;
71963;SDS011;59834;52.124;5.422;2023-05-10T05:09:23;61.78;;;20.35;;
71963;SDS011;59834;52.124;5.422;2023-05-10T05:11:58;57.05;;;20.02;;
71963;SDS011;59834;52.124;5.422;2023-05-10T05:14:32;56.63;;;19.83;;
71963;SDS011;59834;52.124;5.422;2023-05-10T05:17:04;59.60;;;21.48;;
71963;SDS011;59834;52.124;5.422;2023-05-10T05:19:41;57.38;;;19.80;;
71963;SDS011;59834;52.124;5.422;2023-05-10T05:22:11;61.97;;;20.52;;
71963;SDS011;59834;52.124;5.422;2023-05-10T05:24:40;52.28;;;20.23;;
71963;SDS011;59834;52.124;5.422;2023-05-10T05:27:14;62.67;;;20.65;;
71963;SDS011;59834;52.124;5.422;2023-05-10T05:29:41;61.38;;;21.25;;
71963;SDS011;59834;52.124;5.422;2023-05-10T05:32:16;56.13;;;22.02;;
71963;SDS011;59834;52.124;5.422;2023-05-10T05:38:51;54.63;;;18.90;;
71963;SDS011;59834;52.124;5.422;2023-05-10T05:41:24;53.13;;;20.95;;
71963;SDS011;59834;52.124;5.422;2023-05-10T05:44:14;55.53;;;20.40;;
71963;SDS011;59834;52.124;5.422;2023-05-10T05:46:41;59.67;;;21.88;;
71963;SDS011;59834;52.124;5.422;2023-05-10T05:49:15;58.40;;;22.60;;
71963;SDS011;59834;52.124;5.422;2023-05-10T05:52:02;56.58;;;20.35;;
71963;SDS011;59834;52.124;5.422;2023-05-10T05:54:32;40.50;;;19.13;;
71963;SDS011;59834;52.124;5.422;2023-05-10T05:57:02;47.40;;;19.63;;
71963;SDS011;59834;52.124;5.422;2023-05-10T05:59:32;56.75;;;19.55;;
71963;SDS011;59834;52.124;5.422;2023-05-10T06:02:03;51.45;;;19.83;;
71963;SDS011;59834;52.124;5.422;2023-05-10T06:04:36;53.25;;;19.05;;
71963;SDS011;59834;52.124;5.422;2023-05-10T06:07:11;41.70;;;18.33;;
71963;SDS011;59834;52.124;5.422;2023-05-10T06:09:48;44.65;;;18.75;;
71963;SDS011;59834;52.124;5.422;2023-05-10T06:12:23;43.55;;;19.50;;
71963;SDS011;59834;52.124;5.422;2023-05-10T06:14:58;44.05;;;17.63;;
71963;SDS011;59834;52.124;5.422;2023-05-10T06:17:33;40.45;;;16.98;;
71963;SDS011;59834;52.124;5.422;2023-05-10T06:20:05;42.90;;;18.00;;
71963;SDS011;59834;52.124;5.422;2023-05-10T06:44:26;41.17;;;16.23;;
71963;SDS011;59834;52.124;5.422;2023-05-10T06:50:07;35.03;;;14.63;;
71963;SDS011;59834;52.124;5.422;2023-05-10T06:53:01;32.30;;;14.35;;
71963;SDS011;59834;52.124;5.422;2023-05-10T06:55:46;35.30;;;14.82;;
71963;SDS011;59834;52.124;5.422;2023-05-10T06:58:30;29.15;;;12.70;;
71963;SDS011;59834;52.124;5.422;2023-05-10T07:01:01;26.30;;;11.63;;
71963;SDS011;59834;52.124;5.422;2023-05-10T07:07:33;21.57;;;8.90;;
71963;SDS011;59834;52.124;5.422;2023-05-10T07:10:02;21.30;;;9.25;;
71963;SDS011;59834;52.124;5.422;2023-05-10T07:12:34;18.02;;;8.55;;
71963;SDS011;59834;52.124;5.422;2023-05-10T07:15:06;17.33;;;8.85;;
71963;SDS011;59834;52.124;5.422;2023-05-10T07:17:33;19.33;;;8.98;;
71963;SDS011;59834;52.124;5.422;2023-05-10T07:20:01;19.07;;;9.57;;
71963;SDS011;59834;52.124;5.422;2023-05-10T07:22:29;16.02;;;8.15;;
71963;SDS011;59834;52.124;5.422;2023-05-10T07:24:56;14.10;;;7.30;;
71963;SDS011;59834;52.124;5.422;2023-05-10T07:27:27;16.15;;;6.60;;
71963;SDS011;59834;52.124;5.422;2023-05-10T07:30:08;15.88;;;7.60;;
71963;SDS011;59834;52.124;5.422;2023-05-10T07:32:59;11.33;;;6.00;;
71963;SDS011;59834;52.124;5.422;2023-05-10T07:35:31;13.40;;;6.82;;
71963;SDS011;59834;52.124;5.422;2023-05-10T07:38:01;15.73;;;6.57;;
71963;SDS011;59834;52.124;5.422;2023-05-10T07:40:30;12.63;;;6.65;;
71963;SDS011;59834;52.124;5.422;2023-05-10T07:43:10;13.20;;;6.25;;
71963;SDS011;59834;52.124;5.422;2023-05-10T07:45:51;10.82;;;6.03;;
71963;SDS011;59834;52.124;5.422;2023-05-10T07:48:22;13.55;;;7.00;;
71963;SDS011;59834;52.124;5.422;2023-05-10T07:55:03;12.80;;;6.55;;
71963;SDS011;59834;52.124;5.422;2023-05-10T08:00:37;20.10;;;6.97;;
71963;SDS011;59834;52.124;5.422;2023-05-10T08:03:34;13.13;;;5.28;;
71963;SDS011;59834;52.124;5.422;2023-05-10T08:06:39;17.15;;;6.38;;
71963;SDS011;59834;52.124;5.422;2023-05-10T08:13:29;10.52;;;5.90;;
71963;SDS011;59834;52.124;5.422;2023-05-10T08:16:36;14.47;;;6.50;;
71963;SDS011;59834;52.124;5.422;2023-05-10T08:23:07;12.00;;;6.50;;
71963;SDS011;59834;52.124;5.422;2023-05-10T08:25:49;13.27;;;6.35;;
71963;SDS011;59834;52.124;5.422;2023-05-10T08:28:29;10.95;;;6.10;;
71963;SDS011;59834;52.124;5.422;2023-05-10T08:37:24;10.73;;;6.75;;
71963;SDS011;59834;52.124;5.422;2023-05-10T08:40:26;17.08;;;6.30;;
71963;SDS011;59834;52.124;5.422;2023-05-10T08:43:06;12.02;;;6.30;;
71963;SDS011;59834;52.124;5.422;2023-05-10T08:49:08;10.02;;;6.53;;
71963;SDS011;59834;52.124;5.422;2023-05-10T08:52:01;15.48;;;6.93;;
71963;SDS011;59834;52.124;5.422;2023-05-10T08:54:58;11.45;;;6.05;;
71963;SDS011;59834;52.124;5.422;2023-05-10T08:57:25;10.75;;;6.70;;
71963;SDS011;59834;52.124;5.422;2023-05-10T08:59:52;14.40;;;7.77;;
71963;SDS011;59834;52.124;5.422;2023-05-10T09:02:19;9.32;;;6.88;;
71963;SDS011;59834;52.124;5.422;2023-05-10T09:04:47;12.45;;;7.15;;
71963;SDS011;59834;52.124;5.422;2023-05-10T09:07:15;14.00;;;6.95;;
71963;SDS011;59834;52.124;5.422;2023-05-10T09:09:43;12.38;;;6.45;;
71963;SDS011;59834;52.124;5.422;2023-05-10T09:12:10;13.20;;;6.27;;
71963;SDS011;59834;52.124;5.422;2023-05-10T09:14:37;10.00;;;6.60;;
71963;SDS011;59834;52.124;5.422;2023-05-10T09:17:04;10.15;;;5.65;;
71963;SDS011;59834;52.124;5.422;2023-05-10T09:20:01;7.32;;;4.70;;
71963;SDS011;59834;52.124;5.422;2023-05-10T09:22:56;5.35;;;4.20;;
71963;SDS011;59834;52.124;5.422;2023-05-10T09:25:26;8.00;;;4.53;;
71963;SDS011;59834;52.124;5.422;2023-05-10T09:27:53;6.00;;;4.15;;
71963;SDS011;59834;52.124;5.422;2023-05-10T09:30:25;8.93;;;3.67;;
71963;SDS011;59834;52.124;5.422;2023-05-10T09:32:54;5.00;;;3.40;;
71963;SDS011;59834;52.124;5.422;2023-05-10T09:35:22;5.88;;;4.10;;
71963;SDS011;59834;52.124;5.422;2023-05-10T09:37:55;6.73;;;3.77;;
71963;SDS011;59834;52.124;5.422;2023-05-10T09:40:27;8.40;;;4.22;;
71963;SDS011;59834;52.124;5.422;2023-05-10T09:43:02;6.05;;;3.67;;
71963;SDS011;59834;52.124;5.422;2023-05-10T09:45:35;4.00;;;3.30;;
71963;SDS011;59834;52.124;5.422;2023-05-10T09:48:04;4.43;;;2.67;;
71963;SDS011;59834;52.124;5.422;2023-05-10T09:50:34;4.77;;;2.70;;
71963;SDS011;59834;52.124;5.422;2023-05-10T09:53:14;2.90;;;2.42;;
71963;SDS011;59834;52.124;5.422;2023-05-10T09:55:59;5.03;;;2.10;;
71963;SDS011;59834;52.124;5.422;2023-05-10T10:09:11;3.22;;;2.25;;
71963;SDS011;59834;52.124;5.422;2023-05-10T10:11:45;4.80;;;2.17;;
71963;SDS011;59834;52.124;5.422;2023-05-10T10:14:31;5.85;;;2.28;;
71963;SDS011;59834;52.124;5.422;2023-05-10T10:17:10;5.15;;;2.53;;
71963;SDS011;59834;52.124;5.422;2023-05-10T10:19:58;4.37;;;2.93;;
71963;SDS011;59834;52.124;5.422;2023-05-10T10:22:53;5.13;;;2.80;;
71963;SDS011;59834;52.124;5.422;2023-05-10T10:25:24;5.32;;;2.95;;
71963;SDS011;59834;52.124;5.422;2023-05-10T10:28:07;6.97;;;3.10;;
71963;SDS011;59834;52.124;5.422;2023-05-10T10:30:53;5.03;;;2.72;;
71963;SDS011;59834;52.124;5.422;2023-05-10T10:33:59;5.33;;;3.53;;
71963;SDS011;59834;52.124;5.422;2023-05-10T10:36:51;4.20;;;3.47;;
71963;SDS011;59834;52.124;5.422;2023-05-10T10:39:25;4.30;;;3.17;;
71963;SDS011;59834;52.124;5.422;2023-05-10T10:42:04;5.20;;;3.45;;
71963;SDS011;59834;52.124;5.422;2023-05-10T10:44:46;7.20;;;3.60;;
71963;SDS011;59834;52.124;5.422;2023-05-10T10:47:34;5.40;;;3.80;;
71963;SDS011;59834;52.124;5.422;2023-05-10T10:50:06;6.20;;;3.47;;
71963;SDS011;59834;52.124;5.422;2023-05-10T10:52:42;6.22;;;3.28;;
71963;SDS011;59834;52.124;5.422;2023-05-10T10:55:17;5.30;;;3.47;;
71963;SDS011;59834;52.124;5.422;2023-05-10T10:58:28;5.32;;;2.80;;
71963;SDS011;59834;52.124;5.422;2023-05-10T11:01:20;5.33;;;3.10;;
71963;SDS011;59834;52.124;5.422;2023-05-10T11:07:15;5.65;;;3.20;;
71963;SDS011;59834;52.124;5.422;2023-05-10T11:10:04;9.75;;;3.03;;
71963;SDS011;59834;52.124;5.422;2023-05-10T11:13:08;7.93;;;4.63;;
71963;SDS011;59834;52.124;5.422;2023-05-10T11:15:48;4.57;;;3.00;;
71963;SDS011;59834;52.124;5.422;2023-05-10T11:18:48;4.45;;;2.88;;
71963;SDS011;59834;52.124;5.422;2023-05-10T11:21:31;4.15;;;2.90;;
71963;SDS011;59834;52.124;5.422;2023-05-10T11:38:50;7.55;;;3.03;;
71963;SDS011;59834;52.124;5.422;2023-05-10T11:41:24;5.05;;;2.58;;
71963;SDS011;59834;52.124;5.422;2023-05-10T11:46:52;7.87;;;2.50;;
71963;SDS011;59834;52.124;5.422;2023-05-10T11:49:31;5.70;;;2.90;;
71963;SDS011;59834;52.124;5.422;2023-05-10T11:52:10;2.70;;;1.95;;
71963;SDS011;59834;52.124;5.422;2023-05-10T11:54:53;4.72;;;2.42;;
71963;SDS011;59834;52.124;5.422;2023-05-10T11:57:25;9.95;;;2.33;;
71963;SDS011;59834;52.124;5.422;2023-05-10T11:59:53;4.00;;;2.20;;
71963;SDS011;59834;52.124;5.422;2023-05-10T12:02:23;5.65;;;1.63;;
71963;SDS011;59834;52.124;5.422;2023-05-10T12:04:50;3.22;;;1.30;;
71963;SDS011;59834;52.124;5.422;2023-05-10T12:07:18;3.38;;;1.83;;
71963;SDS011;59834;52.124;5.422;2023-05-10T12:10:02;3.75;;;1.60;;
71963;SDS011;59834;52.124;5.422;2023-05-10T12:12:37;2.53;;;1.43;;
71963;SDS011;59834;52.124;5.422;2023-05-10T12:15:23;3.08;;;1.50;;
71963;SDS011;59834;52.124;5.422;2023-05-10T12:17:51;4.38;;;1.45;;
71963;SDS011;59834;52.124;5.422;2023-05-10T12:20:26;3.50;;;1.50;;
71963;SDS011;59834;52.124;5.422;2023-05-10T12:22:54;3.70;;;1.13;;
71963;SDS011;59834;52.124;5.422;2023-05-10T12:25:29;2.30;;;1.40;;
71963;SDS011;59834;52.124;5.422;2023-05-10T12:27:57;3.97;;;1.30;;
71963;SDS011;59834;52.124;5.422;2023-05-10T12:30:27;4.32;;;1.30;;
71963;SDS011;59834;52.124;5.422;2023-05-10T12:33:10;2.53;;;1.25;;
71963;SDS011;59834;52.124;5.422;2023-05-10T12:35:43;4.28;;;1.65;;
71963;SDS011;59834;52.124;5.422;2023-05-10T12:40:59;2.13;;;1.33;;
71963;SDS011;59834;52.124;5.422;2023-05-10T12:43:26;3.05;;;1.23;;
71963;SDS011;59834;52.124;5.422;2023-05-10T12:45:53;2.33;;;1.27;;
71963;SDS011;59834;52.124;5.422;2023-05-10T12:48:20;2.78;;;1.00;;
71963;SDS011;59834;52.124;5.422;2023-05-10T12:50:46;2.33;;;0.80;;
71963;SDS011;59834;52.124;5.422;2023-05-10T12:53:14;2.90;;;1.17;;
71963;SDS011;59834;52.124;5.422;2023-05-10T12:55:44;2.03;;;0.93;;
71963;SDS011;59834;52.124;5.422;2023-05-10T12:58:12;1.98;;;0.98;;
71963;SDS011;59834;52.124;5.422;2023-05-10T13:00:52;2.42;;;1.02;;
71963;SDS011;59834;52.124;5.422;2023-05-10T13:03:19;2.50;;;1.10;;
71963;SDS011;59834;52.124;5.422;2023-05-10T13:05:47;2.00;;;0.50;;
71963;SDS011;59834;52.124;5.422;2023-05-10T13:08:14;2.20;;;0.88;;
71963;SDS011;59834;52.124;5.422;2023-05-10T13:10:43;1.70;;;0.55;;
71963;SDS011;59834;52.124;5.422;2023-05-10T13:13:10;2.75;;;0.65;;
71963;SDS011;59834;52.124;5.422;2023-05-10T13:15:37;2.43;;;1.47;;
71963;SDS011;59834;52.124;5.422;2023-05-10T13:18:04;3.15;;;2.05;;
71963;SDS011;59834;52.124;5.422;2023-05-10T13:20:32;4.82;;;2.20;;
71963;SDS011;59834;52.124;5.422;2023-05-10T13:23:00;3.50;;;2.00;;
71963;SDS011;59834;52.124;5.422;2023-05-10T13:25:27;5.45;;;2.65;;
71963;SDS011;59834;52.124;5.422;2023-05-10T13:27:55;5.83;;;2.90;;
71963;SDS011;59834;52.124;5.422;2023-05-10T13:30:22;4.20;;;2.47;;
71963;SDS011;59834;52.124;5.422;2023-05-10T13:32:53;3.90;;;2.40;;
71963;SDS011;59834;52.124;5.422;2023-05-10T13:35:20;4.95;;;2.45;;
71963;SDS011;59834;52.124;5.422;2023-05-10T13:37:48;6.70;;;2.30;;
71963;SDS011;59834;52.124;5.422;2023-05-10T13:40:16;4.10;;;1.97;;
71963;SDS011;59834;52.124;5.422;2023-05-10T13:42:43;3.13;;;1.65;;
71963;SDS011;59834;52.124;5.422;2023-05-10T13:45:10;3.75;;;1.92;;
71963;SDS011;59834;52.124;5.422;2023-05-10T13:51:21;3.83;;;1.70;;
71963;SDS011;59834;52.124;5.422;2023-05-10T13:53:48;4.67;;;2.73;;
71963;SDS011;59834;52.124;5.422;2023-05-10T13:56:17;6.05;;;2.83;;
71963;SDS011;59834;52.124;5.422;2023-05-10T13:58:46;4.65;;;2.13;;
71963;SDS011;59834;52.124;5.422;2023-05-10T14:01:15;5.90;;;2.97;;
71963;SDS011;59834;52.124;5.422;2023-05-10T14:03:42;4.85;;;2.33;;
71963;SDS011;59834;52.124;5.422;2023-05-10T14:06:14;4.93;;;2.67;;
71963;SDS011;59834;52.124;5.422;2023-05-10T14:08:49;5.10;;;2.53;;
71963;SDS011;59834;52.124;5.422;2023-05-10T14:11:39;6.88;;;2.80;;
71963;SDS011;59834;52.124;5.422;2023-05-10T14:14:27;5.13;;;2.53;;
71963;SDS011;59834;52.124;5.422;2023-05-10T14:17:27;4.82;;;2.85;;
71963;SDS011;59834;52.124;5.422;2023-05-10T14:20:08;7.10;;;3.57;;
71963;SDS011;59834;52.124;5.422;2023-05-10T14:22:35;4.70;;;2.60;;
71963;SDS011;59834;52.124;5.422;2023-05-10T14:25:02;4.75;;;2.83;;
71963;SDS011;59834;52.124;5.422;2023-05-10T14:27:31;4.20;;;2.75;;
71963;SDS011;59834;52.124;5.422;2023-05-10T14:29:59;5.25;;;2.85;;
71963;SDS011;59834;52.124;5.422;2023-05-10T14:32:26;6.07;;;2.90;;
71963;SDS011;59834;52.124;5.422;2023-05-10T14:34:57;5.80;;;3.17;;
71963;SDS011;59834;52.124;5.422;2023-05-10T14:37:40;6.70;;;3.03;;
71963;SDS011;59834;52.124;5.422;2023-05-10T14:44:13;8.35;;;3.13;;
71963;SDS011;59834;52.124;5.422;2023-05-10T14:46:42;6.83;;;3.10;;
71963;SDS011;59834;52.124;5.422;2023-05-10T14:49:09;6.45;;;3.17;;
71963;SDS011;59834;52.124;5.422;2023-05-10T14:51:36;8.63;;;3.60;;
71963;SDS011;59834;52.124;5.422;2023-05-10T14:54:03;7.93;;;3.90;;
71963;SDS011;59834;52.124;5.422;2023-05-10T14:56:30;9.43;;;4.22;;
71963;SDS011;59834;52.124;5.422;2023-05-10T14:58:56;10.03;;;3.67;;
71963;SDS011;59834;52.124;5.422;2023-05-10T15:01:24;8.38;;;3.78;;
71963;SDS011;59834;52.124;5.422;2023-05-10T15:03:51;6.80;;;3.97;;
71963;SDS011;59834;52.124;5.422;2023-05-10T15:06:22;8.25;;;3.63;;
71963;SDS011;59834;52.124;5.422;2023-05-10T15:08:49;6.85;;;4.10;;
71963;SDS011;59834;52.124;5.422;2023-05-10T15:11:19;11.87;;;4.67;;
71963;SDS011;59834;52.124;5.422;2023-05-10T15:13:48;11.70;;;4.70;;
71963;SDS011;59834;52.124;5.422;2023-05-10T15:16:15;8.35;;;4.38;;
71963;SDS011;59834;52.124;5.422;2023-05-10T15:18:42;8.30;;;4.03;;
71963;SDS011;59834;52.124;5.422;2023-05-10T15:21:09;6.35;;;4.10;;
71963;SDS011;59834;52.124;5.422;2023-05-10T15:23:36;7.80;;;4.43;;
71963;SDS011;59834;52.124;5.422;2023-05-10T15:26:02;8.10;;;3.83;;
71963;SDS011;59834;52.124;5.422;2023-05-10T15:28:29;6.45;;;4.20;;
71963;SDS011;59834;52.124;5.422;2023-05-10T15:30:59;6.07;;;3.67;;
71963;SDS011;59834;52.124;5.422;2023-05-10T15:33:26;8.75;;;4.22;;
71963;SDS011;59834;52.124;5.422;2023-05-10T15:35:53;9.43;;;4.33;;
71963;SDS011;59834;52.124;5.422;2023-05-10T15:38:21;6.40;;;4.00;;
71963;SDS011;59834;52.124;5.422;2023-05-10T15:41:04;6.32;;;3.88;;
71963;SDS011;59834;52.124;5.422;2023-05-10T15:43:31;6.75;;;3.97;;
71963;SDS011;59834;52.124;5.422;2023-05-10T15:45:58;7.47;;;3.70;;
71963;SDS011;59834;52.124;5.422;2023-05-10T15:48:25;5.67;;;3.57;;
71963;SDS011;59834;52.124;5.422;2023-05-10T15:50:52;10.75;;;3.30;;
71963;SDS011;59834;52.124;5.422;2023-05-10T15:53:19;4.20;;;2.72;;
71963;SDS011;59834;52.124;5.422;2023-05-10T15:55:45;5.60;;;3.03;;
71963;SDS011;59834;52.124;5.422;2023-05-10T15:58:14;5.25;;;2.90;;
71963;SDS011;59834;52.124;5.422;2023-05-10T16:00:42;6.53;;;3.08;;
71963;SDS011;59834;52.124;5.422;2023-05-10T16:03:09;5.70;;;3.60;;
71963;SDS011;59834;52.124;5.422;2023-05-10T16:05:39;4.70;;;2.80;;
71963;SDS011;59834;52.124;5.422;2023-05-10T16:08:05;4.83;;;2.60;;
71963;SDS011;59834;52.124;5.422;2023-05-10T16:10:32;3.88;;;2.33;;
71963;SDS011;59834;52.124;5.422;2023-05-10T16:15:51;4.47;;;2.90;;
71963;SDS011;59834;52.124;5.422;2023-05-10T16:18:19;6.82;;;2.53;;
71963;SDS011;59834;52.124;5.422;2023-05-10T16:20:46;3.90;;;2.73;;
71963;SDS011;59834;52.124;5.422;2023-05-10T16:23:34;5.78;;;2.90;;
71963;SDS011;59834;52.124;5.422;2023-05-10T16:26:01;4.47;;;2.95;;
71963;SDS011;59834;52.124;5.422;2023-05-10T16:28:30;4.47;;;3.08;;
71963;SDS011;59834;52.124;5.422;2023-05-10T16:31:00;7.80;;;3.38;;
71963;SDS011;59834;52.124;5.422;2023-05-10T16:33:30;7.33;;;3.13;;
71963;SDS011;59834;52.124;5.422;2023-05-10T16:36:08;5.35;;;3.20;;
71963;SDS011;59834;52.124;5.422;2023-05-10T16:38:38;5.43;;;3.10;;
71963;SDS011;59834;52.124;5.422;2023-05-10T16:41:10;5.85;;;2.92;;
71963;SDS011;59834;52.124;5.422;2023-05-10T16:43:38;7.22;;;2.88;;
71963;SDS011;59834;52.124;5.422;2023-05-10T16:46:10;4.37;;;2.60;;
71963;SDS011;59834;52.124;5.422;2023-05-10T16:48:37;4.60;;;2.53;;
71963;SDS011;59834;52.124;5.422;2023-05-10T16:51:04;7.72;;;2.88;;
71963;SDS011;59834;52.124;5.422;2023-05-10T16:53:31;5.13;;;2.47;;
71963;SDS011;59834;52.124;5.422;2023-05-10T16:55:58;5.20;;;2.53;;
71963;SDS011;59834;52.124;5.422;2023-05-10T16:58:24;6.00;;;2.73;;
71963;SDS011;59834;52.124;5.422;2023-05-10T17:00:51;6.47;;;2.13;;
71963;SDS011;59834;52.124;5.422;2023-05-10T17:03:21;4.00;;;2.15;;
71963;SDS011;59834;52.124;5.422;2023-05-10T17:05:47;3.78;;;1.95;;
71963;SDS011;59834;52.124;5.422;2023-05-10T17:08:20;4.30;;;2.30;;
71963;SDS011;59834;52.124;5.422;2023-05-10T17:11:01;4.47;;;1.77;;
71963;SDS011;59834;52.124;5.422;2023-05-10T17:13:59;3.88;;;1.95;;